Airport ICAO


22:12 UTC

15°C

No significant clouds


An affordable passengers' Moving Map for your aircraft. Made for the iPad and the iPhone
More information here

LFTH Le Palyvestre


Hyeres FRANCE   VFR


METAR LFTH 132200Z AUTO VRB02KT 9000 NSC 15/14 Q1027 TEMPO 3000 BR 0h12min

TAF LFTH 132000Z 1321/1421 04006KT CAVOK TEMPO 1321/1408 3000 BR 2h12min





NOTAMS

OPEN